Time;durP1;ratioP1;P1;durP2;ratioP2;P2;SDS_P1;SDS_P2;PMS_P1;PMS_P2;Temp;Humidity;BMP_temperature;BMP_pressure;BME280_temperature;BME280_humidity;BME280_pressure;Samples;Min_cycle;Max_cycle;Signal;HPM_P1;HPM_P2
2022/02/06 00:02:00;;;;;;;5.07;2.63;;;5.60;78.40;;;;;;5101982;28;20252;-91
2022/02/06 00:04:26;;;;;;;7.80;2.67;;;5.60;77.90;;;;;;5089034;28;20186;-91
2022/02/06 00:06:53;;;;;;;6.47;2.77;;;5.70;77.50;;;;;;5110719;28;20228;-91
2022/02/06 00:09:19;;;;;;;4.63;2.60;;;5.60;78.20;;;;;;5100050;28;20212;-91
2022/02/06 00:11:44;;;;;;;5.03;2.50;;;5.60;78.40;;;;;;5093853;28;20245;-90
2022/02/06 00:14:10;;;;;;;4.10;2.57;;;5.60;78.00;;;;;;5089956;28;20194;-90
2022/02/06 00:16:36;;;;;;;7.50;2.47;;;5.70;77.10;;;;;;5112573;28;20677;-91
2022/02/06 00:19:02;;;;;;;5.83;2.50;;;5.70;77.10;;;;;;5097215;28;20269;-90
2022/02/06 00:21:31;;;;;;;5.40;2.43;;;5.70;77.80;;;;;;5116345;28;20190;-88
2022/02/06 00:23:58;;;;;;;5.00;2.27;;;5.70;77.90;;;;;;5108920;28;20659;-91
2022/02/06 00:29:38;;;;;;;6.67;2.63;;;5.70;77.50;;;;;;5080765;28;20274;-91
2022/02/06 00:31:53;;;;;;;5.70;2.70;;;5.60;77.80;;;;;;5098994;28;20659;-90
2022/02/06 00:34:50;;;;;;;6.50;2.50;;;5.60;77.80;;;;;;5094521;28;20190;-91
2022/02/06 00:40:02;;;;;;;4.47;2.13;;;5.50;78.80;;;;;;5115329;28;20639;-91
2022/02/06 00:42:28;;;;;;;6.33;2.57;;;5.50;78.80;;;;;;5081145;28;20198;-90
2022/02/06 00:44:54;;;;;;;3.50;2.33;;;5.50;78.80;;;;;;5097080;28;20187;-89
2022/02/06 00:47:20;;;;;;;4.27;2.40;;;5.60;78.80;;;;;;5108199;28;20229;-88
2022/02/06 00:49:47;;;;;;;5.27;2.53;;;5.60;78.50;;;;;;5109743;28;20189;-89
2022/02/06 00:52:21;;;;;;;6.67;2.53;;;5.60;77.90;;;;;;5109985;28;20182;-91
2022/02/06 00:54:46;;;;;;;4.73;2.10;;;5.50;78.60;;;;;;5106712;28;20649;-90
2022/02/06 00:57:12;;;;;;;5.77;2.77;;;5.50;78.90;;;;;;5103238;28;20211;-90
2022/02/06 00:59:38;;;;;;;7.67;2.87;;;5.60;78.60;;;;;;5106939;28;20263;-89
2022/02/06 01:02:03;;;;;;;4.23;2.70;;;5.50;77.90;;;;;;5111797;28;20215;-90
2022/02/06 01:04:34;;;;;;;4.20;2.30;;;5.60;77.50;;;;;;5114967;28;20199;-90
2022/02/06 01:07:00;;;;;;;4.47;2.10;;;5.50;78.50;;;;;;5108639;28;20947;-91
2022/02/06 01:09:26;;;;;;;5.70;2.60;;;5.40;79.00;;;;;;5103320;28;20897;-91
2022/02/06 01:11:53;;;;;;;4.67;2.30;;;5.40;79.10;;;;;;5081432;28;20186;-90
2022/02/06 01:17:28;;;;;;;4.57;2.50;;;5.30;79.00;;;;;;5013631;28;20217;-90
2022/02/06 01:22:23;;;;;;;5.07;2.30;;;5.30;79.20;;;;;;5119227;28;20220;-88
2022/02/06 01:25:07;;;;;;;7.67;2.63;;;5.30;80.40;;;;;;5115166;28;20235;-90
2022/02/06 01:27:42;;;;;;;6.00;2.17;;;5.20;79.40;;;;;;5078786;28;20222;-90
2022/02/06 01:30:19;;;;;;;5.20;2.13;;;5.20;79.60;;;;;;5098680;28;20193;-90
2022/02/06 01:32:52;;;;;;;12.37;3.20;;;5.30;78.90;;;;;;5094523;28;20179;-91
2022/02/06 01:35:27;;;;;;;4.23;2.30;;;5.20;79.50;;;;;;5108334;28;20218;-90
2022/02/06 01:38:11;;;;;;;5.80;2.50;;;5.20;79.30;;;;;;5113415;28;20198;-90
2022/02/06 01:40:53;;;;;;;5.60;2.87;;;5.10;80.70;;;;;;5105420;28;20198;-90
2022/02/06 01:43:23;;;;;;;4.00;2.33;;;5.10;80.50;;;;;;5083966;28;20240;-89
2022/02/06 02:49:33;;;;;;;6.17;2.60;;;4.50;85.30;;;;;;5107458;28;20586;-90
2022/02/06 02:52:04;;;;;;;5.80;2.30;;;4.60;84.20;;;;;;5116188;28;20190;-90
2022/02/06 02:54:32;;;;;;;3.37;2.73;;;4.60;84.40;;;;;;5078623;28;20197;-90
2022/02/06 03:00:19;;;;;;;6.07;2.63;;;4.50;84.70;;;;;;5099966;28;20198;-90
2022/02/06 03:02:45;;;;;;;3.57;1.83;;;4.50;84.80;;;;;;5098450;28;20197;-89
2022/02/06 03:05:10;;;;;;;3.70;2.57;;;4.60;84.50;;;;;;5111998;28;20183;-91
2022/02/06 03:07:36;;;;;;;4.83;2.70;;;4.60;83.90;;;;;;5113240;28;20693;-88
2022/02/06 03:10:03;;;;;;;6.63;2.53;;;4.60;83.40;;;;;;5097532;28;20178;-90
2022/02/06 03:12:31;;;;;;;10.40;2.37;;;4.60;84.00;;;;;;5114725;28;20243;-90
2022/02/06 03:15:06;;;;;;;4.27;2.60;;;4.60;83.00;;;;;;5097871;28;20219;-90
2022/02/06 03:17:37;;;;;;;6.30;2.30;;;4.60;83.50;;;;;;5102022;28;20213;-90
2022/02/06 03:20:08;;;;;;;5.80;2.57;;;4.70;82.70;;;;;;5109631;28;20183;-90
2022/02/06 03:22:46;;;;;;;3.80;2.17;;;4.70;83.40;;;;;;5110048;28;20197;-89
2022/02/06 03:25:18;;;;;;;2.83;2.10;;;4.80;81.90;;;;;;5092349;28;20200;-90
2022/02/06 03:27:43;;;;;;;6.33;3.07;;;4.70;82.70;;;;;;5083932;28;20222;-88
2022/02/06 03:30:10;;;;;;;6.00;2.00;;;4.80;81.90;;;;;;5109728;28;20187;-90
2022/02/06 03:32:35;;;;;;;3.40;2.57;;;4.70;82.40;;;;;;5111230;28;20212;-90
2022/02/06 03:35:01;;;;;;;3.60;2.23;;;4.70;83.10;;;;;;5089554;28;20802;-89
2022/02/06 03:37:26;;;;;;;4.37;1.93;;;4.80;81.60;;;;;;5100638;28;20235;-89
2022/02/06 03:39:54;;;;;;;3.90;2.27;;;4.90;81.10;;;;;;5075999;28;20719;-90
2022/02/06 03:42:22;;;;;;;7.27;2.37;;;4.90;80.90;;;;;;5106188;28;20187;-90
2022/02/06 03:44:49;;;;;;;4.43;2.43;;;4.90;81.10;;;;;;5106665;28;20190;-90
2022/02/06 03:52:09;;;;;;;4.33;2.67;;;4.80;82.60;;;;;;5093133;28;20183;-91
2022/02/06 03:54:35;;;;;;;4.30;2.53;;;4.90;81.40;;;;;;5094879;28;20277;-90
2022/02/06 03:57:00;;;;;;;5.20;2.53;;;5.00;81.60;;;;;;5108354;28;20216;-89
2022/02/06 03:59:26;;;;;;;5.63;2.70;;;4.90;82.00;;;;;;5095475;28;20186;-89
2022/02/06 04:01:52;;;;;;;6.33;2.40;;;5.00;80.80;;;;;;5118560;28;20202;-90
2022/02/06 04:04:18;;;;;;;4.27;2.33;;;5.00;81.00;;;;;;5101656;28;20195;-89
2022/02/06 04:06:45;;;;;;;4.57;2.20;;;5.00;81.50;;;;;;5104306;28;20305;-89
2022/02/06 04:09:16;;;;;;;6.40;2.60;;;5.00;81.60;;;;;;5105167;28;20197;-90
2022/02/06 04:11:49;;;;;;;5.60;2.77;;;5.00;82.00;;;;;;5082570;28;20326;-90
2022/02/06 04:14:27;;;;;;;4.47;1.83;;;5.00;81.60;;;;;;5113245;28;20182;-89
2022/02/06 04:16:59;;;;;;;6.43;2.23;;;5.10;81.10;;;;;;5110372;28;20245;-90
2022/02/06 04:19:27;;;;;;;5.07;2.40;;;5.20;81.10;;;;;;5112688;28;20183;-89
2022/02/06 04:21:57;;;;;;;5.97;2.20;;;5.20;81.00;;;;;;5094940;28;20203;-90
2022/02/06 04:24:25;;;;;;;5.13;2.13;;;5.10;81.30;;;;;;5109724;28;20755;-89
2022/02/06 04:26:53;;;;;;;4.33;2.13;;;5.30;80.30;;;;;;5091997;28;20232;-89
2022/02/06 04:29:19;;;;;;;4.37;2.47;;;5.20;80.50;;;;;;5108359;28;20206;-90
2022/02/06 04:31:48;;;;;;;3.27;2.13;;;5.30;80.40;;;;;;5097133;28;20185;-89
2022/02/06 04:34:20;;;;;;;4.90;2.50;;;5.20;81.00;;;;;;5112053;28;20197;-90
2022/02/06 04:36:56;;;;;;;6.23;2.33;;;5.20;81.40;;;;;;5094160;28;20593;-90
2022/02/06 04:40:05;;;;;;;4.17;2.70;;;5.20;81.50;;;;;;5090856;28;20215;-91
2022/02/06 04:56:05;;;;;;;4.90;1.83;;;5.20;81.90;;;;;;5080448;28;20697;-90
2022/02/06 05:25:56;;;;;;;6.63;2.80;;;5.60;79.90;;;;;;5075173;28;20264;-89
2022/02/06 05:28:33;;;;;;;5.50;2.70;;;5.50;80.20;;;;;;5080270;28;20271;-90
2022/02/06 05:31:08;;;;;;;4.93;2.40;;;5.60;79.60;;;;;;5085666;28;20190;-89
2022/02/06 05:33:35;;;;;;;3.27;2.00;;;5.50;80.40;;;;;;5076241;28;20206;-89
2022/02/06 05:36:03;;;;;;;5.43;2.40;;;5.50;79.70;;;;;;5080157;28;20222;-88
2022/02/06 05:38:29;;;;;;;5.53;2.50;;;5.60;79.80;;;;;;5089753;28;20183;-89
2022/02/06 05:41:12;;;;;;;7.00;2.47;;;5.60;80.80;;;;;;5084595;28;20217;-91
2022/02/06 05:43:38;;;;;;;6.40;2.00;;;5.50;81.30;;;;;;5110963;28;20198;-90
2022/02/06 05:46:07;;;;;;;3.80;2.23;;;5.60;80.50;;;;;;5079875;28;20242;-89
2022/02/06 05:48:33;;;;;;;4.83;2.10;;;5.50;81.30;;;;;;5099644;28;20190;-90
2022/02/06 05:50:59;;;;;;;3.07;1.93;;;5.40;81.70;;;;;;5090510;28;20206;-90
2022/02/06 05:53:24;;;;;;;3.63;2.27;;;5.50;81.30;;;;;;5117238;28;20173;-90
2022/02/06 05:55:50;;;;;;;5.27;2.20;;;5.60;80.90;;;;;;5115056;28;20202;-89
2022/02/06 05:58:16;;;;;;;5.40;2.10;;;5.50;82.20;;;;;;5084299;28;20186;-89
2022/02/06 06:00:42;;;;;;;3.87;1.97;;;5.60;81.50;;;;;;5113723;28;20206;-89
2022/02/06 06:03:08;;;;;;;5.53;2.20;;;5.50;82.70;;;;;;5115384;28;20198;-90
2022/02/06 06:05:35;;;;;;;3.73;2.43;;;5.50;82.70;;;;;;5081731;28;20242;-89
2022/02/06 06:08:01;;;;;;;4.63;2.57;;;5.50;83.60;;;;;;5111209;28;20206;-90
2022/02/06 06:10:27;;;;;;;4.13;2.27;;;5.50;83.70;;;;;;5118312;28;20182;-89
2022/02/06 06:12:52;;;;;;;3.53;1.93;;;5.40;84.70;;;;;;5105874;28;20228;-89
2022/02/06 06:15:18;;;;;;;2.47;2.13;;;5.40;84.20;;;;;;5089990;28;20198;-90
2022/02/06 06:17:45;;;;;;;7.47;2.37;;;5.50;83.70;;;;;;5120368;28;20253;-90
2022/02/06 06:20:15;;;;;;;3.70;1.90;;;5.50;83.30;;;;;;5122458;28;20239;-90
2022/02/06 06:22:41;;;;;;;5.17;2.27;;;5.50;83.70;;;;;;5102295;28;20269;-90
2022/02/06 06:25:08;;;;;;;4.30;2.20;;;5.50;84.10;;;;;;5108412;28;20185;-90
2022/02/06 06:27:34;;;;;;;3.87;2.30;;;5.50;83.00;;;;;;5091792;28;20210;-90
2022/02/06 06:30:00;;;;;;;4.43;2.63;;;5.50;83.60;;;;;;5122480;28;20177;-89
2022/02/06 06:32:26;;;;;;;5.67;2.53;;;5.50;82.90;;;;;;5112532;28;20187;-90
2022/02/06 06:34:53;;;;;;;10.20;3.77;;;5.60;82.60;;;;;;5117309;28;20255;-88
2022/02/06 06:37:20;;;;;;;7.90;2.37;;;5.60;82.80;;;;;;5088496;28;20218;-89
2022/02/06 06:39:48;;;;;;;7.47;2.53;;;5.60;82.40;;;;;;5120115;28;20197;-90
2022/02/06 06:42:14;;;;;;;7.80;2.30;;;5.60;82.50;;;;;;5118412;28;20179;-89
2022/02/06 06:44:41;;;;;;;3.17;2.10;;;5.60;82.50;;;;;;5105308;28;20668;-89
2022/02/06 06:47:08;;;;;;;3.70;1.90;;;5.70;81.70;;;;;;5124340;28;20261;-91
2022/02/06 06:49:34;;;;;;;4.53;2.70;;;5.70;82.10;;;;;;5109586;28;20182;-89
2022/02/06 06:52:01;;;;;;;5.10;2.50;;;5.70;82.20;;;;;;5113901;28;20688;-89
2022/02/06 06:54:35;;;;;;;3.93;2.00;;;5.70;83.10;;;;;;5123691;28;20419;-90
2022/02/06 06:57:25;;;;;;;4.30;2.17;;;5.80;81.40;;;;;;5096015;28;20685;-89
2022/02/06 07:04:48;;;;;;;4.17;2.60;;;5.90;80.70;;;;;;5093185;28;20195;-89
2022/02/06 07:07:14;;;;;;;3.70;2.40;;;5.90;81.50;;;;;;5107062;28;20221;-89
2022/02/06 07:09:41;;;;;;;6.87;2.10;;;5.90;81.30;;;;;;5111558;28;20260;-91
2022/02/06 07:12:09;;;;;;;5.77;1.80;;;5.90;81.00;;;;;;5116987;28;20179;-90
2022/02/06 07:14:35;;;;;;;7.97;2.50;;;5.90;80.60;;;;;;5106706;28;20188;-89
2022/02/06 07:17:02;;;;;;;5.27;2.73;;;5.90;80.60;;;;;;5074589;28;20673;-90
2022/02/06 07:19:27;;;;;;;4.40;2.43;;;5.90;81.30;;;;;;5093114;28;20744;-89
2022/02/06 07:21:54;;;;;;;4.73;2.10;;;6.00;80.90;;;;;;5118655;28;20194;-89
2022/02/06 07:24:21;;;;;;;5.87;2.13;;;5.90;81.30;;;;;;5120006;28;20190;-89
2022/02/06 07:26:50;;;;;;;3.13;1.83;;;5.90;81.40;;;;;;5098526;28;20658;-89
2022/02/06 07:29:17;;;;;;;4.17;2.27;;;5.90;80.60;;;;;;5102782;28;20193;-89
2022/02/06 07:31:45;;;;;;;6.70;2.53;;;6.00;81.30;;;;;;5103787;28;20183;-89
2022/02/06 07:34:11;;;;;;;4.87;2.33;;;6.00;80.40;;;;;;5078488;28;20194;-89
2022/02/06 07:36:37;;;;;;;5.37;2.30;;;6.00;80.70;;;;;;5103344;28;20211;-88
2022/02/06 07:39:04;;;;;;;3.50;2.17;;;6.10;80.10;;;;;;5082163;28;20217;-90
2022/02/06 07:41:30;;;;;;;2.57;1.73;;;6.00;81.10;;;;;;5113034;28;20182;-89
2022/02/06 07:43:55;;;;;;;4.17;2.50;;;6.10;81.80;;;;;;5102682;28;20175;-89
2022/02/06 07:46:29;;;;;;;3.60;2.20;;;5.90;84.30;;;;;;5134533;28;20240;-90
2022/02/06 07:48:59;;;;;;;5.10;2.30;;;5.90;83.30;;;;;;5094427;28;20246;-89
2022/02/06 07:51:25;;;;;;;5.30;2.03;;;5.90;83.30;;;;;;5106011;28;20172;-89
2022/02/06 07:53:50;;;;;;;4.03;2.10;;;5.90;82.50;;;;;;5104700;28;20274;-89
2022/02/06 07:56:16;;;;;;;3.40;2.07;;;6.00;81.80;;;;;;5118126;28;20301;-89
2022/02/06 07:58:42;;;;;;;4.87;2.13;;;5.90;83.20;;;;;;5113098;28;20257;-89
2022/02/06 08:01:07;;;;;;;5.40;1.90;;;5.90;82.90;;;;;;5093299;28;20599;-89
2022/02/06 08:03:33;;;;;;;5.70;2.37;;;6.00;83.00;;;;;;5084759;28;20186;-89
2022/02/06 08:05:59;;;;;;;6.93;2.43;;;6.00;83.40;;;;;;5117677;28;20214;-89
2022/02/06 08:08:25;;;;;;;5.53;2.10;;;5.90;84.30;;;;;;5112034;28;20681;-89
2022/02/06 08:10:57;;;;;;;7.67;2.40;;;5.90;83.80;;;;;;5101778;28;20231;-89
2022/02/06 08:13:28;;;;;;;4.97;2.07;;;5.90;85.30;;;;;;5086662;28;20179;-89
2022/02/06 08:15:54;;;;;;;2.87;2.00;;;5.90;86.70;;;;;;5109424;28;20206;-89
2022/02/06 08:18:20;;;;;;;4.97;2.17;;;5.80;86.20;;;;;;5098723;28;20259;-91
2022/02/06 08:20:46;;;;;;;6.27;1.80;;;5.80;87.70;;;;;;5120419;28;20193;-89
2022/02/06 08:23:14;;;;;;;9.00;2.90;;;5.90;86.30;;;;;;5084943;28;20210;-90
2022/02/06 08:25:39;;;;;;;3.17;2.00;;;5.90;86.60;;;;;;5109779;28;20194;-89
2022/02/06 08:28:05;;;;;;;5.40;1.97;;;5.90;86.40;;;;;;5116052;28;20281;-89
2022/02/06 08:30:31;;;;;;;7.87;2.10;;;6.00;86.00;;;;;;5102509;28;20183;-89
2022/02/06 08:32:57;;;;;;;5.23;1.80;;;6.00;85.00;;;;;;5113212;28;20616;-89
2022/02/06 08:35:24;;;;;;;4.77;1.80;;;6.00;86.10;;;;;;5119796;28;20235;-90
2022/02/06 08:37:51;;;;;;;4.97;1.90;;;6.00;87.50;;;;;;5120367;28;20209;-89
2022/02/06 08:40:16;;;;;;;4.87;2.47;;;6.00;87.50;;;;;;5114657;28;20285;-89
2022/02/06 08:42:44;;;;;;;7.53;2.40;;;5.90;91.20;;;;;;5116113;28;20207;-89
2022/02/06 08:45:15;;;;;;;3.17;2.00;;;5.90;90.40;;;;;;5098840;28;20179;-89
2022/02/06 08:47:46;;;;;;;3.60;1.83;;;5.90;90.20;;;;;;5114395;28;20313;-89
2022/02/06 08:50:13;;;;;;;5.27;2.57;;;5.90;87.90;;;;;;5114868;28;20257;-88
2022/02/06 08:52:39;;;;;;;4.13;2.00;;;5.90;89.50;;;;;;5102974;28;20218;-88
2022/02/06 08:55:08;;;;;;;3.40;2.00;;;5.90;89.70;;;;;;5101586;28;20194;-89
2022/02/06 08:57:36;;;;;;;4.30;2.50;;;5.90;89.20;;;;;;5118096;28;20233;-88
2022/02/06 09:00:03;;;;;;;3.87;2.07;;;5.90;88.90;;;;;;5108911;28;20544;-90
2022/02/06 09:02:29;;;;;;;3.83;2.03;;;6.00;88.10;;;;;;5100921;28;20186;-89
2022/02/06 09:04:54;;;;;;;4.37;1.97;;;6.00;88.10;;;;;;5104930;28;20217;-88
2022/02/06 09:07:22;;;;;;;5.33;2.33;;;5.90;89.00;;;;;;5093532;28;20293;-89
2022/02/06 09:09:50;;;;;;;7.97;2.30;;;5.80;90.80;;;;;;5110678;28;20194;-90
2022/02/06 09:12:17;;;;;;;8.23;2.97;;;5.70;94.80;;;;;;5102548;28;20536;-89
2022/02/06 09:14:43;;;;;;;5.20;2.20;;;5.70;95.50;;;;;;5102883;28;20633;-88
2022/02/06 09:17:09;;;;;;;4.00;2.10;;;5.70;96.70;;;;;;5109207;28;20866;-88
2022/02/06 09:19:37;;;;;;;5.03;2.03;;;5.70;96.80;;;;;;5125252;28;20225;-89
2022/02/06 09:22:03;;;;;;;8.50;2.13;;;5.70;96.20;;;;;;5114349;28;20492;-89
2022/02/06 09:24:29;;;;;;;4.50;2.00;;;5.80;97.50;;;;;;5114128;28;20205;-89
2022/02/06 09:26:56;;;;;;;4.27;1.93;;;5.80;95.70;;;;;;5104513;28;20219;-89
2022/02/06 09:29:23;;;;;;;3.97;2.00;;;5.80;94.80;;;;;;5099629;28;20247;-88
2022/02/06 09:31:51;;;;;;;7.07;2.40;;;5.80;93.90;;;;;;5117200;28;20189;-88
2022/02/06 09:36:44;;;;;;;5.47;2.10;;;5.90;95.40;;;;;;5107256;28;20222;-91
2022/02/06 09:39:11;;;;;;;3.73;2.33;;;5.90;94.70;;;;;;5118751;28;20534;-90
2022/02/06 09:41:42;;;;;;;4.93;2.27;;;5.90;93.90;;;;;;5113245;28;20260;-89
2022/02/06 09:44:09;;;;;;;8.53;2.83;;;6.00;94.00;;;;;;5096584;28;20273;-91
2022/02/06 09:46:36;;;;;;;4.37;2.20;;;5.90;95.00;;;;;;5088482;28;20259;-89
2022/02/06 09:49:03;;;;;;;3.83;2.00;;;5.90;95.40;;;;;;5084534;28;20190;-88
2022/02/06 09:51:28;;;;;;;5.00;2.10;;;5.80;98.90;;;;;;5105524;28;20732;-89
2022/02/06 09:53:55;;;;;;;3.37;2.53;;;5.80;99.20;;;;;;5114409;28;20179;-89
2022/02/06 09:56:23;;;;;;;4.57;2.20;;;5.80;99.90;;;;;;5119198;28;20692;-88
2022/02/06 10:01:17;;;;;;;9.93;2.20;;;5.80;99.90;;;;;;5121968;28;20713;-89
2022/02/06 10:03:47;;;;;;;6.17;2.30;;;5.80;99.50;;;;;;5080898;28;20236;-89
2022/02/06 10:06:26;;;;;;;5.40;1.60;;;5.80;99.00;;;;;;5074580;28;20203;-90
2022/02/06 10:08:58;;;;;;;3.27;2.00;;;5.90;99.90;;;;;;5095416;28;20220;-89
2022/02/06 10:11:27;;;;;;;4.47;2.10;;;5.80;99.90;;;;;;5091923;28;20627;-89
2022/02/06 10:13:53;;;;;;;2.67;1.57;;;5.80;99.90;;;;;;5119125;28;20231;-90
2022/02/06 10:16:19;;;;;;;9.47;2.27;;;5.80;99.90;;;;;;5111409;28;20214;-89
2022/02/06 10:18:45;;;;;;;5.30;2.30;;;5.80;99.90;;;;;;5115580;28;20276;-90
2022/02/06 10:21:21;;;;;;;3.67;1.90;;;5.90;99.90;;;;;;5108233;28;20289;-90
2022/02/06 10:24:00;;;;;;;5.83;2.30;;;5.90;99.90;;;;;;5106795;28;20612;-89
2022/02/06 10:31:48;;;;;;;4.63;1.93;;;6.00;99.90;;;;;;5108366;28;20195;-90
2022/02/06 10:34:25;;;;;;;4.53;2.27;;;6.00;99.90;;;;;;5112497;28;20449;-90
2022/02/06 10:37:08;;;;;;;3.37;1.97;;;6.00;99.90;;;;;;5101975;28;20223;-89
2022/02/06 10:39:34;;;;;;;2.93;1.77;;;6.00;99.90;;;;;;5087043;28;20217;-89
2022/02/06 10:41:59;;;;;;;3.90;2.27;;;6.00;99.90;;;;;;5077564;28;20179;-89
2022/02/06 10:44:31;;;;;;;2.33;1.47;;;6.00;99.90;;;;;;5084750;28;20194;-89
2022/02/06 10:46:58;;;;;;;3.50;2.10;;;5.90;99.90;;;;;;5070434;28;20247;-89
2022/02/06 10:49:26;;;;;;;3.97;1.97;;;5.90;99.90;;;;;;5090401;28;20195;-89
2022/02/06 10:52:00;;;;;;;4.23;2.00;;;5.90;99.90;;;;;;5072378;28;20270;-90
2022/02/06 10:54:29;;;;;;;3.60;1.70;;;5.80;99.90;;;;;;5092756;28;20186;-89
2022/02/06 10:57:07;;;;;;;3.67;1.83;;;5.80;99.90;;;;;;5094354;28;20671;-88
2022/02/06 10:59:53;;;;;;;5.00;1.90;;;5.80;99.90;;;;;;5070853;28;20196;-89
2022/02/06 11:02:34;;;;;;;3.07;2.30;;;5.80;99.90;;;;;;5083958;28;20184;-88
2022/02/06 11:05:18;;;;;;;3.97;1.73;;;5.70;99.90;;;;;;5079966;28;20462;-89
2022/02/06 11:08:01;;;;;;;2.63;1.70;;;5.60;99.90;;;;;;5076296;28;20301;-88
2022/02/06 11:10:31;;;;;;;4.60;2.10;;;5.60;99.90;;;;;;5070168;28;20183;-89
2022/02/06 11:12:59;;;;;;;4.17;1.87;;;5.50;99.90;;;;;;5094469;28;20181;-88
2022/02/06 11:15:31;;;;;;;3.27;1.70;;;5.50;99.90;;;;;;5072951;28;20283;-88
2022/02/06 11:18:23;;;;;;;2.63;1.80;;;5.60;99.90;;;;;;5085544;28;20207;-88
2022/02/06 11:21:00;;;;;;;4.90;2.20;;;5.50;99.90;;;;;;5083630;28;20304;-89
2022/02/06 11:23:38;;;;;;;3.83;2.00;;;5.50;99.90;;;;;;5089425;28;20242;-90
2022/02/06 11:26:05;;;;;;;5.27;1.73;;;5.50;99.90;;;;;;5087880;28;20206;-89
2022/02/06 11:28:32;;;;;;;5.27;1.77;;;5.50;99.90;;;;;;5093365;28;20207;-89
2022/02/06 11:30:57;;;;;;;3.57;1.80;;;5.50;99.90;;;;;;5088504;28;20646;-89
2022/02/06 11:33:24;;;;;;;2.37;1.60;;;5.50;99.90;;;;;;5089016;28;20188;-90
2022/02/06 11:35:59;;;;;;;3.70;2.03;;;5.50;99.90;;;;;;5065210;28;20312;-89
2022/02/06 11:45:07;;;;;;;3.53;2.53;;;5.60;99.90;;;;;;4992490;28;20236;-89
2022/02/06 11:47:45;;;;;;;4.57;2.43;;;5.60;99.90;;;;;;5086376;28;20550;-88
2022/02/06 11:50:12;;;;;;;7.27;2.43;;;5.60;99.90;;;;;;5048199;28;20187;-89
2022/02/06 11:52:48;;;;;;;2.33;2.00;;;5.60;99.90;;;;;;5091247;28;20189;-89
2022/02/06 11:55:39;;;;;;;4.13;2.03;;;5.60;99.90;;;;;;5091405;28;20190;-88
2022/02/06 11:58:25;;;;;;;3.27;1.87;;;5.70;99.90;;;;;;5068937;28;20214;-89
2022/02/06 12:01:06;;;;;;;4.10;1.50;;;5.70;99.90;;;;;;5086932;28;20198;-88
2022/02/06 12:03:52;;;;;;;3.83;2.00;;;5.70;99.90;;;;;;5072035;28;20193;-89
2022/02/06 12:06:19;;;;;;;5.13;1.93;;;5.60;99.90;;;;;;5072129;28;20840;-88
2022/02/06 12:09:05;;;;;;;3.33;2.00;;;5.70;99.90;;;;;;5058760;28;20290;-90
2022/02/06 12:11:35;;;;;;;4.00;1.83;;;5.60;99.90;;;;;;5069520;28;20670;-89
2022/02/06 12:14:21;;;;;;;2.87;2.20;;;5.60;99.90;;;;;;5084019;28;20199;-89
2022/02/06 12:18:05;;;;;;;3.40;1.73;;;5.60;99.90;;;;;;5086520;28;20274;-89
2022/02/06 12:20:15;;;;;;;2.47;1.47;;;5.70;99.90;;;;;;5070957;28;20183;-88
2022/02/06 12:22:49;;;;;;;5.13;2.30;;;5.80;99.90;;;;;;5073523;28;20187;-89
2022/02/06 12:25:32;;;;;;;2.33;1.70;;;5.70;99.90;;;;;;5072985;28;20252;-90
2022/02/06 12:28:18;;;;;;;4.57;1.90;;;5.70;99.90;;;;;;5089510;28;20319;-88
2022/02/06 12:30:45;;;;;;;4.00;1.83;;;5.70;99.90;;;;;;5092133;28;20171;-89
2022/02/06 12:33:21;;;;;;;4.00;2.00;;;5.70;99.90;;;;;;5065954;28;20183;-88
2022/02/06 12:38:31;;;;;;;2.93;1.77;;;5.70;99.90;;;;;;5075934;28;20314;-89
2022/02/06 12:40:57;;;;;;;2.73;1.80;;;5.80;99.90;;;;;;5093330;28;20802;-91
2022/02/06 12:43:28;;;;;;;3.53;1.43;;;5.70;99.90;;;;;;5091752;28;20240;-89
2022/02/06 12:45:56;;;;;;;1.77;1.67;;;5.80;99.90;;;;;;5067347;28;20220;-88
2022/02/06 12:48:21;;;;;;;4.43;2.23;;;5.70;99.90;;;;;;5066531;28;20747;-88
2022/02/06 12:50:47;;;;;;;3.43;2.27;;;5.70;99.90;;;;;;5063895;28;20202;-89
2022/02/06 12:53:17;;;;;;;3.70;1.80;;;5.70;99.90;;;;;;5067140;28;20180;-88
2022/02/06 12:55:45;;;;;;;4.93;2.20;;;5.70;99.90;;;;;;5079699;28;20187;-88
2022/02/06 12:58:13;;;;;;;2.40;1.57;;;5.70;99.90;;;;;;5051736;28;20191;-87
2022/02/06 13:00:49;;;;;;;3.23;1.63;;;5.70;99.90;;;;;;5090103;28;20244;-89
2022/02/06 13:03:43;;;;;;;3.80;1.70;;;5.70;99.90;;;;;;5082976;28;20284;-90
2022/02/06 13:06:10;;;;;;;2.27;1.33;;;5.60;99.90;;;;;;5093518;28;21003;-90
2022/02/06 13:08:39;;;;;;;1.50;1.40;;;5.60;99.90;;;;;;5092343;28;20819;-89
2022/02/06 13:11:10;;;;;;;2.80;1.80;;;5.50;99.90;;;;;;5089247;28;20184;-88
2022/02/06 13:13:43;;;;;;;6.17;1.70;;;5.60;99.90;;;;;;5072629;28;20201;-90
2022/02/06 13:21:57;;;;;;;2.17;1.40;;;5.50;99.90;;;;;;5094640;28;20727;-89
2022/02/06 13:30:47;;;;;;;2.90;1.90;;;5.60;99.90;;;;;;5090186;28;20249;-89
2022/02/06 13:35:43;;;;;;;2.87;1.43;;;5.60;99.90;;;;;;5092909;28;20197;-89
2022/02/06 13:38:15;;;;;;;2.30;1.60;;;5.60;99.90;;;;;;5110245;28;20206;-88
2022/02/06 13:40:47;;;;;;;1.60;1.40;;;5.50;99.90;;;;;;5110894;28;20192;-89
2022/02/06 13:43:24;;;;;;;5.47;1.60;;;5.60;99.90;;;;;;5104480;28;20310;-89
2022/02/06 13:45:55;;;;;;;3.00;1.83;;;5.60;99.90;;;;;;5088529;28;20202;-89
2022/02/06 13:48:23;;;;;;;2.33;1.60;;;5.60;99.90;;;;;;5111221;28;20206;-89
2022/02/06 13:50:57;;;;;;;3.33;1.47;;;5.50;99.90;;;;;;5113205;28;20260;-89
2022/02/06 13:53:25;;;;;;;2.93;1.93;;;5.50;99.90;;;;;;5109245;28;20181;-88
2022/02/06 13:56:03;;;;;;;4.13;1.80;;;5.60;99.90;;;;;;5127169;28;20202;-88
2022/02/06 13:58:30;;;;;;;5.77;1.57;;;5.60;99.90;;;;;;5124606;28;20190;-88
2022/02/06 14:01:02;;;;;;;2.33;1.50;;;5.60;99.90;;;;;;5116997;28;20189;-88
2022/02/06 14:03:48;;;;;;;6.07;1.70;;;5.60;99.90;;;;;;5083283;28;20277;-88
2022/02/06 14:06:32;;;;;;;2.30;1.40;;;5.60;99.90;;;;;;5090770;28;20217;-89
2022/02/06 14:09:25;;;;;;;2.43;1.57;;;5.70;99.90;;;;;;5128815;28;20209;-88
2022/02/06 14:12:05;;;;;;;3.70;1.83;;;5.70;99.90;;;;;;5106168;28;20189;-89
2022/02/06 14:14:36;;;;;;;6.47;2.20;;;5.70;99.90;;;;;;5105468;28;20178;-88
2022/02/06 14:17:08;;;;;;;2.10;1.80;;;5.70;99.90;;;;;;5108032;28;20217;-89
2022/02/06 14:19:44;;;;;;;1.83;1.67;;;5.70;99.90;;;;;;5115684;28;20990;-88
2022/02/06 14:22:15;;;;;;;3.37;1.87;;;5.70;99.90;;;;;;5109234;28;20239;-88
2022/02/06 14:24:52;;;;;;;4.20;1.63;;;5.70;99.90;;;;;;5116019;28;20183;-89
2022/02/06 14:27:30;;;;;;;2.77;2.00;;;5.70;99.90;;;;;;5117144;28;20210;-89
2022/02/06 14:30:05;;;;;;;1.33;1.30;;;5.60;99.90;;;;;;5113592;28;20208;-88
2022/02/06 14:32:31;;;;;;;3.20;2.03;;;5.70;99.90;;;;;;5110077;28;20193;-88
2022/02/06 14:35:11;;;;;;;2.83;1.50;;;5.60;99.90;;;;;;5093511;28;20198;-88
2022/02/06 14:37:51;;;;;;;3.93;1.70;;;5.60;99.90;;;;;;5118720;28;20711;-89
2022/02/06 14:41:04;;;;;;;2.10;1.80;;;5.70;99.90;;;;;;5118927;28;20193;-88
2022/02/06 14:43:36;;;;;;;4.50;1.67;;;5.60;99.90;;;;;;5109904;28;20672;-89
2022/02/06 14:46:02;;;;;;;4.33;1.60;;;5.70;99.90;;;;;;5099073;28;20210;-88
2022/02/06 14:48:28;;;;;;;2.87;1.63;;;5.60;99.90;;;;;;5108380;28;20191;-88
2022/02/06 14:50:54;;;;;;;1.90;1.50;;;5.60;99.90;;;;;;5115122;28;20195;-88
2022/02/06 14:53:21;;;;;;;2.63;1.80;;;5.70;99.90;;;;;;5119522;28;20198;-87
2022/02/06 14:55:50;;;;;;;2.53;1.63;;;5.60;99.90;;;;;;5100648;28;20194;-87
2022/02/06 14:58:16;;;;;;;1.40;1.30;;;5.60;99.90;;;;;;5097966;28;20186;-87
2022/02/06 15:00:43;;;;;;;2.50;1.43;;;5.60;99.90;;;;;;5109946;28;20193;-88
2022/02/06 15:03:13;;;;;;;2.90;1.53;;;5.60;99.90;;;;;;5107734;28;20190;-89
2022/02/06 15:05:40;;;;;;;3.50;1.50;;;5.70;99.90;;;;;;5111492;28;20178;-88
2022/02/06 15:08:07;;;;;;;3.33;1.80;;;5.60;99.90;;;;;;5090595;28;20206;-88
2022/02/06 15:10:35;;;;;;;1.43;1.33;;;5.70;99.90;;;;;;5110700;28;20213;-87
2022/02/06 15:13:03;;;;;;;2.83;1.40;;;5.70;99.90;;;;;;5105033;28;20250;-89
2022/02/06 15:15:37;;;;;;;2.50;1.20;;;5.70;99.90;;;;;;5107680;28;20190;-88
2022/02/06 15:18:21;;;;;;;1.67;1.37;;;5.80;99.90;;;;;;5105483;28;20631;-89
2022/02/06 15:20:48;;;;;;;1.70;1.30;;;5.80;99.90;;;;;;5085392;28;20186;-89
2022/02/06 15:23:14;;;;;;;2.43;1.50;;;5.80;99.90;;;;;;5102558;28;20206;-88
2022/02/06 15:25:39;;;;;;;4.23;1.50;;;5.80;99.90;;;;;;5098809;28;20584;-89
2022/02/06 15:28:05;;;;;;;1.60;1.33;;;5.80;99.90;;;;;;5083305;28;20215;-88
2022/02/06 15:30:31;;;;;;;1.70;1.60;;;5.80;99.90;;;;;;5105504;28;20199;-89
2022/02/06 15:32:57;;;;;;;3.07;1.60;;;5.80;99.90;;;;;;5084762;28;20189;-87
2022/02/06 15:35:22;;;;;;;1.23;1.13;;;5.80;99.90;;;;;;5103242;28;20194;-89
2022/02/06 15:37:48;;;;;;;1.90;1.50;;;5.80;99.90;;;;;;5090381;28;20249;-88
2022/02/06 15:40:17;;;;;;;3.47;1.50;;;5.80;99.90;;;;;;5104667;28;20668;-89
2022/02/06 15:42:44;;;;;;;2.17;1.47;;;5.90;99.90;;;;;;5104757;28;20197;-89
2022/02/06 15:45:10;;;;;;;2.63;1.80;;;5.90;99.90;;;;;;5113903;28;20186;-88
2022/02/06 15:47:36;;;;;;;1.83;1.50;;;6.00;99.90;;;;;;5117257;28;20237;-89
2022/02/06 15:50:03;;;;;;;2.30;1.50;;;5.90;99.90;;;;;;5115190;28;20189;-90
2022/02/06 15:52:29;;;;;;;1.50;1.40;;;5.80;99.90;;;;;;5116881;28;20653;-89
2022/02/06 15:54:54;;;;;;;1.37;1.20;;;5.90;99.90;;;;;;5108964;28;20202;-88
2022/02/06 15:57:20;;;;;;;1.77;1.23;;;6.00;99.90;;;;;;5087316;28;20327;-90